Time;durP1;ratioP1;P1;durP2;ratioP2;P2;SDS_P1;SDS_P2;PMS_P1;PMS_P2;Temp;Humidity;BMP_temperature;BMP_pressure;BME280_temperature;BME280_humidity;BME280_pressure;Samples;Min_cycle;Max_cycle;Signal;HPM_P1;HPM_P2
2022/03/19 04:02:13;;;;;;;65.60;48.53;;;4.80;99.90;;;;;;5098017;23;20245;-71
2022/03/19 04:04:38;;;;;;;63.70;47.87;;;4.70;99.90;;;;;;4951518;29;20662;-71
2022/03/19 04:07:04;;;;;;;59.20;45.20;;;4.70;99.90;;;;;;4950714;28;20246;-71
2022/03/19 04:09:30;;;;;;;58.83;47.10;;;4.80;99.90;;;;;;4936590;29;20209;-71
2022/03/19 04:11:55;;;;;;;74.03;47.60;;;4.70;99.90;;;;;;4951314;28;20744;-72
2022/03/19 04:14:24;;;;;;;60.33;47.17;;;4.80;99.90;;;;;;4936517;29;20701;-72
2022/03/19 04:16:50;;;;;;;60.20;45.70;;;4.70;99.90;;;;;;4934964;29;20202;-70
2022/03/19 04:19:16;;;;;;;61.33;47.10;;;4.80;99.90;;;;;;4936290;29;20218;-70
2022/03/19 04:21:41;;;;;;;62.77;45.60;;;4.70;99.90;;;;;;4936229;29;20626;-70
2022/03/19 04:24:07;;;;;;;58.53;45.43;;;4.60;99.90;;;;;;4935235;29;20238;-70
2022/03/19 04:26:33;;;;;;;59.90;45.07;;;4.60;99.90;;;;;;4936349;29;20197;-71
2022/03/19 04:28:58;;;;;;;62.43;45.63;;;4.60;99.90;;;;;;4935881;29;20198;-70
2022/03/19 04:31:24;;;;;;;58.27;46.67;;;4.50;99.90;;;;;;4936126;29;20211;-70
2022/03/19 04:33:50;;;;;;;58.80;44.17;;;4.50;99.90;;;;;;4935920;29;20213;-71
2022/03/19 04:36:32;;;;;;;65.40;45.07;;;4.40;99.90;;;;;;4936263;29;20524;-70
2022/03/19 04:38:59;;;;;;;62.23;45.47;;;4.40;99.90;;;;;;4935811;29;20192;-70
2022/03/19 04:41:25;;;;;;;59.33;45.07;;;4.40;99.90;;;;;;4934878;29;20202;-71
2022/03/19 04:43:51;;;;;;;56.50;40.43;;;4.30;99.90;;;;;;4935886;29;20293;-70
2022/03/19 04:46:17;;;;;;;64.57;43.23;;;4.30;99.90;;;;;;4935815;29;20281;-70
2022/03/19 04:48:45;;;;;;;61.13;46.07;;;4.20;99.90;;;;;;4935474;29;20186;-70
2022/03/19 04:51:16;;;;;;;57.03;40.73;;;4.10;99.90;;;;;;4934603;29;20210;-70
2022/03/19 04:53:42;;;;;;;54.23;36.67;;;4.10;99.90;;;;;;4934381;29;20620;-70
2022/03/19 04:56:08;;;;;;;55.97;36.60;;;4.10;99.90;;;;;;4935424;29;20528;-70
2022/03/19 04:58:34;;;;;;;60.77;36.10;;;4.00;99.90;;;;;;4934740;29;20270;-70
2022/03/19 05:01:00;;;;;;;58.87;36.67;;;4.10;99.90;;;;;;4935449;29;20313;-70
2022/03/19 05:03:27;;;;;;;51.80;34.67;;;4.00;99.90;;;;;;4935582;29;20554;-70
2022/03/19 05:05:52;;;;;;;57.33;35.87;;;4.00;99.90;;;;;;4935444;29;20210;-70
2022/03/19 05:08:18;;;;;;;61.23;34.63;;;4.00;99.90;;;;;;4934765;29;20221;-69
2022/03/19 05:13:29;;;;;;;56.57;35.77;;;4.10;99.90;;;;;;4934761;29;20182;-70
2022/03/19 05:15:54;;;;;;;54.03;35.67;;;4.10;99.90;;;;;;4933534;29;20178;-70
2022/03/19 05:18:20;;;;;;;54.13;34.87;;;4.00;99.90;;;;;;4933871;29;20612;-70
2022/03/19 05:20:46;;;;;;;58.87;35.00;;;3.90;99.90;;;;;;4933683;29;20244;-70
2022/03/19 05:23:12;;;;;;;49.53;34.33;;;3.80;99.90;;;;;;4934897;29;20538;-70
2022/03/19 05:25:39;;;;;;;55.57;33.90;;;3.80;99.90;;;;;;4924995;29;20542;-70
2022/03/19 05:28:05;;;;;;;56.00;33.30;;;3.80;99.90;;;;;;4915488;29;20194;-70
2022/03/19 05:30:31;;;;;;;51.93;32.70;;;3.70;99.90;;;;;;4915785;29;20690;-70
2022/03/19 05:32:57;;;;;;;51.80;35.00;;;3.60;99.90;;;;;;4930510;29;20191;-69
2022/03/19 05:35:24;;;;;;;50.30;33.73;;;3.60;99.90;;;;;;4915702;29;20741;-71
2022/03/19 05:37:50;;;;;;;56.60;34.73;;;3.50;99.90;;;;;;4924726;29;20579;-71
2022/03/19 05:40:16;;;;;;;57.67;36.20;;;3.50;99.90;;;;;;4934519;29;20179;-71
2022/03/19 05:42:42;;;;;;;50.60;33.83;;;3.50;99.90;;;;;;4933425;29;20185;-70
2022/03/19 05:45:10;;;;;;;58.20;35.47;;;3.50;99.90;;;;;;4933556;29;20186;-71
2022/03/19 05:47:38;;;;;;;54.17;32.83;;;3.40;99.90;;;;;;4933347;29;20186;-70
2022/03/19 05:50:05;;;;;;;54.73;34.20;;;3.50;99.90;;;;;;4935282;29;20186;-71
2022/03/19 05:52:31;;;;;;;56.00;35.60;;;3.60;99.90;;;;;;4936271;29;20209;-70
2022/03/19 05:54:57;;;;;;;53.77;33.50;;;3.60;99.90;;;;;;4934267;29;20713;-71
2022/03/19 05:57:23;;;;;;;61.97;34.60;;;3.70;99.90;;;;;;4934227;29;20240;-70
2022/03/19 05:59:48;;;;;;;52.30;33.90;;;3.70;99.90;;;;;;4934506;29;20270;-70
2022/03/19 06:02:14;;;;;;;53.63;34.93;;;3.80;99.90;;;;;;4934263;29;20226;-70
2022/03/19 06:04:40;;;;;;;52.13;34.93;;;3.80;99.90;;;;;;4934456;29;20182;-71
2022/03/19 06:07:06;;;;;;;56.27;34.87;;;3.90;99.90;;;;;;4934317;29;20249;-72
2022/03/19 06:09:32;;;;;;;55.83;34.70;;;3.90;99.90;;;;;;4933879;29;20189;-71
2022/03/19 06:11:57;;;;;;;55.27;35.23;;;4.00;99.90;;;;;;4933005;29;20210;-72
2022/03/19 06:14:24;;;;;;;51.83;33.23;;;4.00;99.90;;;;;;4934236;29;20213;-70
2022/03/19 06:16:50;;;;;;;58.13;37.90;;;4.10;99.90;;;;;;4934090;29;20732;-70
2022/03/19 06:19:16;;;;;;;56.27;39.10;;;4.20;99.90;;;;;;4933753;29;20277;-72
2022/03/19 06:21:42;;;;;;;56.20;40.70;;;4.30;99.90;;;;;;4934270;29;20288;-70
2022/03/19 06:24:09;;;;;;;53.83;42.43;;;4.40;99.90;;;;;;4934094;29;20629;-68
2022/03/19 06:26:36;;;;;;;61.93;46.67;;;4.50;99.90;;;;;;4934323;29;20190;-67
2022/03/19 06:29:03;;;;;;;66.40;43.80;;;4.60;99.90;;;;;;4933499;29;20186;-67
2022/03/19 06:31:29;;;;;;;57.37;39.53;;;4.70;99.90;;;;;;4933847;29;20206;-67
2022/03/19 06:33:55;;;;;;;52.33;32.60;;;4.90;99.90;;;;;;4933552;29;20202;-67
2022/03/19 06:39:05;;;;;;;56.63;36.47;;;5.10;99.90;;;;;;4933261;29;20265;-68
2022/03/19 06:41:33;;;;;;;49.77;33.33;;;5.30;99.90;;;;;;4931622;29;20690;-67
2022/03/19 06:43:59;;;;;;;53.30;35.20;;;5.40;99.90;;;;;;4933758;29;20182;-67
2022/03/19 06:46:25;;;;;;;54.40;36.63;;;5.50;99.90;;;;;;4932683;29;20220;-68
2022/03/19 06:48:51;;;;;;;49.40;32.10;;;5.70;99.90;;;;;;4930533;29;20217;-68
2022/03/19 06:51:18;;;;;;;38.20;26.57;;;5.90;99.90;;;;;;4933002;29;20214;-67
2022/03/19 06:53:48;;;;;;;48.17;31.37;;;6.10;99.90;;;;;;4918481;29;20182;-67
2022/03/19 06:56:14;;;;;;;44.37;29.80;;;6.50;99.90;;;;;;4930480;29;20750;-67
2022/03/19 06:58:41;;;;;;;41.33;29.20;;;7.00;99.90;;;;;;4933411;29;20193;-67
2022/03/19 07:01:14;;;;;;;44.70;31.60;;;7.30;99.90;;;;;;4933532;29;20222;-67
2022/03/19 07:03:44;;;;;;;49.33;35.07;;;7.60;99.90;;;;;;4933630;29;20190;-66
2022/03/19 07:06:11;;;;;;;47.37;30.47;;;8.00;99.90;;;;;;4933734;29;20178;-67
2022/03/19 07:08:38;;;;;;;48.80;30.13;;;8.30;99.90;;;;;;4933003;29;20217;-67
2022/03/19 07:11:04;;;;;;;45.80;29.67;;;8.60;99.90;;;;;;4932071;29;20225;-67
2022/03/19 07:13:31;;;;;;;40.47;25.20;;;9.00;99.90;;;;;;4932286;29;20595;-67
2022/03/19 07:15:57;;;;;;;40.70;24.97;;;8.90;99.90;;;;;;4933435;29;20183;-67
2022/03/19 07:18:23;;;;;;;35.53;25.43;;;8.60;99.90;;;;;;4931991;29;20219;-67
2022/03/19 07:20:50;;;;;;;31.67;22.37;;;8.50;99.90;;;;;;4931982;29;20206;-68
2022/03/19 07:23:16;;;;;;;37.80;27.23;;;8.50;99.90;;;;;;4933027;29;20269;-68
2022/03/19 07:25:43;;;;;;;33.80;24.23;;;8.30;99.90;;;;;;4933475;29;20190;-72
2022/03/19 07:28:12;;;;;;;27.17;17.67;;;8.30;99.90;;;;;;4931890;29;20189;-67
2022/03/19 07:30:39;;;;;;;30.97;23.33;;;8.40;99.90;;;;;;4931733;29;20206;-67
2022/03/19 07:33:05;;;;;;;36.37;24.57;;;8.50;99.90;;;;;;4933097;29;20564;-68
2022/03/19 07:35:31;;;;;;;30.50;23.20;;;8.50;99.90;;;;;;4933168;29;20221;-67
2022/03/19 07:38:02;;;;;;;34.90;26.23;;;8.70;99.90;;;;;;4932670;29;20237;-68
2022/03/19 07:43:14;;;;;;;31.93;23.70;;;8.90;99.90;;;;;;4936703;29;20183;-67
2022/03/19 07:45:41;;;;;;;35.03;24.97;;;9.10;99.90;;;;;;4936734;29;20183;-68
2022/03/19 07:48:08;;;;;;;37.00;25.13;;;9.20;99.90;;;;;;4935234;29;20190;-68
2022/03/19 07:50:34;;;;;;;28.67;20.57;;;9.40;99.90;;;;;;4936310;29;20202;-68
2022/03/19 07:53:00;;;;;;;29.27;20.83;;;9.60;99.90;;;;;;4936632;29;20245;-68
2022/03/19 07:55:26;;;;;;;29.93;17.70;;;9.60;99.90;;;;;;4935314;29;20210;-67
2022/03/19 07:57:52;;;;;;;34.17;24.93;;;9.20;99.90;;;;;;4934971;29;20182;-68
2022/03/19 08:00:18;;;;;;;36.33;25.00;;;9.10;99.90;;;;;;4936390;29;20179;-68
2022/03/19 08:02:44;;;;;;;23.13;18.13;;;9.50;99.90;;;;;;4936533;29;20182;-68
2022/03/19 08:05:11;;;;;;;29.63;20.60;;;9.60;99.90;;;;;;4934982;29;20230;-67
2022/03/19 08:07:38;;;;;;;33.40;23.13;;;9.40;99.90;;;;;;4935854;29;20183;-68
2022/03/19 08:10:05;;;;;;;29.20;19.17;;;9.50;99.90;;;;;;4936451;29;20245;-68
2022/03/19 08:12:31;;;;;;;28.63;21.13;;;9.60;99.90;;;;;;4936121;29;20682;-68
2022/03/19 08:14:59;;;;;;;21.17;16.37;;;9.80;99.90;;;;;;4935907;29;20585;-68
2022/03/19 08:17:28;;;;;;;28.27;20.50;;;9.70;99.90;;;;;;4935768;29;20337;-68
2022/03/19 08:19:56;;;;;;;23.20;16.53;;;9.60;99.90;;;;;;4935835;29;20306;-68
2022/03/19 08:22:22;;;;;;;21.03;15.93;;;9.50;99.90;;;;;;4937939;29;20199;-68
2022/03/19 08:24:47;;;;;;;28.93;21.00;;;9.50;99.90;;;;;;4942208;29;20206;-67
2022/03/19 08:27:13;;;;;;;30.73;22.90;;;9.40;99.90;;;;;;4938840;29;20186;-67
2022/03/19 08:29:39;;;;;;;30.77;19.93;;;9.50;99.90;;;;;;4937995;29;20197;-67
2022/03/19 08:32:05;;;;;;;23.40;17.47;;;9.60;99.90;;;;;;4935749;29;20206;-67
2022/03/19 08:34:30;;;;;;;29.93;20.57;;;9.90;99.90;;;;;;4935404;29;20723;-67
2022/03/19 08:36:56;;;;;;;29.13;19.17;;;9.70;99.90;;;;;;4935983;29;20190;-67
2022/03/19 08:42:06;;;;;;;28.43;18.03;;;9.80;99.90;;;;;;4935859;29;20243;-67
2022/03/19 08:44:32;;;;;;;24.83;16.73;;;9.90;99.90;;;;;;4935704;29;20225;-67
2022/03/19 08:46:58;;;;;;;38.43;20.73;;;10.10;99.50;;;;;;4934891;29;20273;-67
2022/03/19 08:49:24;;;;;;;36.37;23.03;;;10.20;99.30;;;;;;4935690;29;20270;-68
2022/03/19 08:51:50;;;;;;;37.27;23.00;;;10.20;98.90;;;;;;4934174;29;20207;-67
2022/03/19 08:54:17;;;;;;;29.23;16.90;;;10.20;98.50;;;;;;4935392;29;20257;-67
2022/03/19 08:56:45;;;;;;;28.67;17.63;;;10.30;97.90;;;;;;4935283;29;20183;-67
2022/03/19 08:59:11;;;;;;;31.93;21.10;;;10.30;97.30;;;;;;4935073;29;20198;-68
2022/03/19 09:01:39;;;;;;;27.40;19.43;;;10.20;97.80;;;;;;4935047;29;20218;-67
2022/03/19 09:04:05;;;;;;;31.97;25.20;;;10.20;97.30;;;;;;4934366;29;20252;-68
2022/03/19 09:06:31;;;;;;;37.47;24.97;;;10.20;98.10;;;;;;4935449;29;20202;-68
2022/03/19 09:08:59;;;;;;;35.47;23.80;;;10.70;97.80;;;;;;4934978;29;20186;-68
2022/03/19 09:11:25;;;;;;;33.93;24.13;;;11.40;97.10;;;;;;4935188;29;20202;-68
2022/03/19 09:13:51;;;;;;;39.27;23.50;;;11.70;95.60;;;;;;4934922;29;20555;-67
2022/03/19 09:16:19;;;;;;;37.57;24.03;;;12.00;94.50;;;;;;4934923;29;20204;-68
2022/03/19 09:18:45;;;;;;;32.60;23.70;;;11.80;94.10;;;;;;4933507;29;20234;-68
2022/03/19 09:21:11;;;;;;;39.17;24.87;;;12.00;93.90;;;;;;4934864;29;20312;-70
2022/03/19 09:23:38;;;;;;;30.23;20.37;;;12.00;94.10;;;;;;4935021;29;20597;-68
2022/03/19 09:26:03;;;;;;;26.90;19.63;;;12.00;92.90;;;;;;4934724;29;20183;-68
2022/03/19 09:28:29;;;;;;;25.50;18.80;;;12.00;93.00;;;;;;4934615;29;20573;-68
2022/03/19 09:30:55;;;;;;;27.60;19.73;;;12.20;92.30;;;;;;4935185;29;20202;-68
2022/03/19 09:33:21;;;;;;;30.40;21.23;;;12.10;93.00;;;;;;4933760;29;20209;-69
2022/03/19 09:35:47;;;;;;;33.67;23.93;;;12.10;92.60;;;;;;4934285;29;20747;-68
2022/03/19 09:38:17;;;;;;;30.67;22.13;;;12.00;92.40;;;;;;4937591;29;20179;-68
2022/03/19 09:40:43;;;;;;;34.73;26.17;;;12.40;92.00;;;;;;4933550;29;20202;-69
2022/03/19 09:43:09;;;;;;;30.73;22.20;;;12.90;91.00;;;;;;4934569;29;20182;-70
2022/03/19 09:45:35;;;;;;;35.20;21.87;;;12.80;90.50;;;;;;4934639;29;20193;-68
2022/03/19 09:48:02;;;;;;;29.30;21.13;;;13.10;90.10;;;;;;4934243;29;20592;-67
2022/03/19 09:50:28;;;;;;;24.57;16.60;;;12.80;89.30;;;;;;4934503;29;20220;-67
2022/03/19 09:52:57;;;;;;;38.17;24.00;;;12.10;90.20;;;;;;4934719;29;20560;-68
2022/03/19 09:55:26;;;;;;;37.27;25.00;;;12.20;90.40;;;;;;4934131;29;20332;-68
2022/03/19 09:57:54;;;;;;;31.13;19.63;;;12.20;90.70;;;;;;4934039;29;20183;-68
2022/03/19 10:00:22;;;;;;;30.30;21.83;;;12.40;90.60;;;;;;4934352;29;20217;-68
2022/03/19 10:02:56;;;;;;;35.50;22.53;;;12.50;90.10;;;;;;4934527;29;20562;-68
2022/03/19 10:10:55;;;;;;;36.47;22.87;;;13.10;90.10;;;;;;4934212;29;20681;-68
2022/03/19 10:13:23;;;;;;;27.90;17.83;;;13.60;89.50;;;;;;4933038;29;20182;-68
2022/03/19 10:15:48;;;;;;;34.97;23.60;;;13.70;87.60;;;;;;4934231;29;20611;-68
2022/03/19 10:18:14;;;;;;;38.00;25.97;;;14.00;87.40;;;;;;4933769;29;20189;-67
2022/03/19 10:20:40;;;;;;;40.67;26.50;;;14.10;86.70;;;;;;4933992;29;20202;-70
2022/03/19 10:23:06;;;;;;;34.20;25.97;;;14.30;85.40;;;;;;4932444;29;20181;-71
2022/03/19 10:25:32;;;;;;;29.27;20.67;;;14.60;82.40;;;;;;4932681;29;20285;-68
2022/03/19 10:28:06;;;;;;;34.97;23.27;;;14.70;81.20;;;;;;4933812;29;20212;-68
2022/03/19 10:30:37;;;;;;;31.07;23.47;;;14.00;81.80;;;;;;4932598;29;20214;-68
2022/03/19 10:33:07;;;;;;;26.50;19.23;;;14.30;80.80;;;;;;4933967;29;20289;-68
2022/03/19 10:35:41;;;;;;;27.07;19.73;;;15.00;78.50;;;;;;4929861;29;20345;-68
2022/03/19 10:38:18;;;;;;;18.27;13.50;;;15.20;75.50;;;;;;4933584;29;20183;-68
2022/03/19 10:40:47;;;;;;;14.77;11.80;;;15.20;67.40;;;;;;4932690;29;20687;-68
2022/03/19 10:43:16;;;;;;;17.77;12.97;;;14.70;65.10;;;;;;4932449;29;20189;-68
2022/03/19 10:45:44;;;;;;;15.43;11.83;;;14.50;65.40;;;;;;4932852;29;20616;-68
2022/03/19 10:48:12;;;;;;;13.87;11.83;;;14.60;62.40;;;;;;4933536;29;20273;-70
2022/03/19 10:50:41;;;;;;;14.43;10.97;;;14.20;62.40;;;;;;4938182;29;20217;-68
2022/03/19 10:53:07;;;;;;;18.33;13.20;;;14.70;64.30;;;;;;4935786;29;20236;-68
2022/03/19 10:55:34;;;;;;;12.60;10.50;;;15.00;62.40;;;;;;4933770;29;20214;-66
2022/03/19 10:57:59;;;;;;;15.43;12.57;;;15.00;61.00;;;;;;4932282;29;20190;-68
2022/03/19 11:00:25;;;;;;;12.27;9.80;;;14.40;63.20;;;;;;4933909;29;20178;-68
2022/03/19 11:02:56;;;;;;;20.60;13.43;;;15.00;63.10;;;;;;4933881;29;20662;-67
2022/03/19 11:05:23;;;;;;;17.60;14.00;;;15.60;62.60;;;;;;4932552;29;20201;-68
2022/03/19 11:07:51;;;;;;;15.27;12.33;;;16.20;61.10;;;;;;4934348;29;20204;-67
2022/03/19 11:10:19;;;;;;;19.60;15.80;;;16.40;59.30;;;;;;4933887;29;20190;-68
2022/03/19 11:12:50;;;;;;;14.97;11.13;;;16.40;59.50;;;;;;4933842;29;20605;-67
2022/03/19 11:15:19;;;;;;;20.67;15.70;;;16.50;58.70;;;;;;4932992;29;20310;-67
2022/03/19 11:17:47;;;;;;;13.40;11.47;;;16.00;59.80;;;;;;4934102;29;20217;-67
2022/03/19 11:20:13;;;;;;;24.00;15.63;;;16.30;60.30;;;;;;4937615;29;20899;-72
2022/03/19 11:22:39;;;;;;;23.40;16.20;;;16.20;61.30;;;;;;4936155;29;20218;-71
2022/03/19 11:25:22;;;;;;;18.10;15.03;;;16.70;60.60;;;;;;4937626;29;20182;-67
2022/03/19 11:27:50;;;;;;;18.93;15.23;;;17.30;59.20;;;;;;4937015;29;20683;-66
2022/03/19 11:30:25;;;;;;;16.60;11.83;;;16.90;57.60;;;;;;4936907;29;20615;-66
2022/03/19 11:33:09;;;;;;;18.10;12.93;;;16.40;58.00;;;;;;4935495;29;20178;-66
2022/03/19 11:35:38;;;;;;;15.47;12.23;;;16.10;59.30;;;;;;4937248;29;20246;-67
2022/03/19 11:38:20;;;;;;;18.57;14.13;;;15.80;61.00;;;;;;4935718;29;20185;-68
2022/03/19 11:40:54;;;;;;;21.13;15.27;;;16.50;60.00;;;;;;4937957;29;20293;-69
2022/03/19 11:43:35;;;;;;;18.70;14.93;;;17.40;58.00;;;;;;4937384;29;20268;-70
2022/03/19 11:46:12;;;;;;;13.90;12.30;;;18.30;55.60;;;;;;4936375;29;20312;-74
2022/03/19 11:48:48;;;;;;;16.00;11.63;;;18.50;54.10;;;;;;4934930;29;20186;-74
2022/03/19 11:51:33;;;;;;;15.77;13.90;;;17.30;54.20;;;;;;4935887;29;20591;-71
2022/03/19 11:54:04;;;;;;;13.50;11.03;;;15.10;59.00;;;;;;4934829;29;20349;-71
2022/03/19 11:56:39;;;;;;;14.53;9.13;;;13.70;60.90;;;;;;4937336;29;20182;-76
2022/03/19 11:59:07;;;;;;;18.67;12.93;;;12.70;64.70;;;;;;4935526;29;20186;-78
2022/03/19 12:01:48;;;;;;;16.97;12.90;;;12.40;66.40;;;;;;4933852;29;20295;-78
2022/03/19 12:04:16;;;;;;;16.27;12.13;;;12.80;66.50;;;;;;4937215;29;20190;-66
2022/03/19 12:06:56;;;;;;;16.80;12.70;;;13.50;64.20;;;;;;4918122;29;20195;-66
2022/03/19 12:09:32;;;;;;;14.57;10.33;;;14.80;62.90;;;;;;4917278;29;20218;-66
2022/03/19 12:12:08;;;;;;;13.93;10.67;;;16.30;57.80;;;;;;4917247;29;20294;-66
2022/03/19 12:14:35;;;;;;;13.63;11.97;;;17.50;55.40;;;;;;4916951;29;20222;-66
2022/03/19 12:17:20;;;;;;;10.50;9.30;;;18.40;53.30;;;;;;4921803;29;20190;-71
2022/03/19 12:19:58;;;;;;;12.13;10.83;;;17.60;50.30;;;;;;4935630;29;20182;-70
2022/03/19 12:22:41;;;;;;;11.43;10.33;;;15.80;52.90;;;;;;4940013;29;20210;-70
2022/03/19 12:25:16;;;;;;;16.83;12.07;;;14.80;56.30;;;;;;4943464;29;20198;-70
2022/03/19 12:27:49;;;;;;;10.93;9.60;;;13.80;57.80;;;;;;4936262;29;20213;-69
2022/03/19 12:30:15;;;;;;;15.67;12.50;;;14.00;58.60;;;;;;4935616;29;20543;-70
2022/03/19 12:32:56;;;;;;;13.77;11.37;;;15.40;56.90;;;;;;4935954;29;20257;-72
2022/03/19 12:35:36;;;;;;;16.40;12.10;;;17.10;55.10;;;;;;4934774;29;20218;-70
2022/03/19 12:38:02;;;;;;;15.10;12.40;;;17.80;52.90;;;;;;4935739;29;20680;-70
2022/03/19 12:43:15;;;;;;;14.90;12.60;;;17.30;52.50;;;;;;4933296;29;20186;-70
2022/03/19 12:45:43;;;;;;;10.70;8.17;;;17.80;50.30;;;;;;4935210;29;20628;-69
2022/03/19 12:48:16;;;;;;;11.23;8.87;;;17.50;50.20;;;;;;4934004;29;20226;-70
2022/03/19 12:50:54;;;;;;;8.23;7.47;;;17.40;49.60;;;;;;4935557;29;20214;-70
2022/03/19 12:53:37;;;;;;;10.53;8.47;;;16.40;50.40;;;;;;4935842;29;20192;-70
2022/03/19 12:56:15;;;;;;;15.27;10.70;;;15.80;50.90;;;;;;4935940;29;20210;-70
2022/03/19 12:58:46;;;;;;;12.17;10.30;;;15.70;52.70;;;;;;4935246;29;20179;-68
2022/03/19 13:01:13;;;;;;;8.87;7.97;;;16.80;52.70;;;;;;4933544;29;20214;-68
2022/03/19 13:03:41;;;;;;;12.93;10.10;;;16.50;51.30;;;;;;4934170;29;20261;-71
2022/03/19 13:06:07;;;;;;;10.70;8.13;;;15.10;52.30;;;;;;4934328;29;20179;-71
2022/03/19 13:08:50;;;;;;;8.97;7.50;;;14.50;52.30;;;;;;4935168;29;20237;-74
2022/03/19 13:11:17;;;;;;;12.37;8.90;;;14.10;54.60;;;;;;4916377;29;20272;-74
2022/03/19 13:13:44;;;;;;;10.30;7.90;;;13.90;55.70;;;;;;4916997;29;20234;-74
2022/03/19 13:16:12;;;;;;;8.97;7.23;;;14.40;54.60;;;;;;4919768;29;20243;-68
2022/03/19 13:18:42;;;;;;;8.13;6.93;;;15.90;52.20;;;;;;4918971;29;20183;-73
2022/03/19 13:21:10;;;;;;;8.90;8.00;;;15.70;50.70;;;;;;4917979;29;20207;-73
2022/03/19 13:23:38;;;;;;;7.63;6.93;;;14.80;52.10;;;;;;4926108;29;20265;-73
2022/03/19 13:26:05;;;;;;;9.73;8.40;;;13.90;53.70;;;;;;4934592;29;20182;-73
2022/03/19 13:28:33;;;;;;;8.97;8.13;;;13.20;55.00;;;;;;4933042;29;20190;-73
2022/03/19 13:30:59;;;;;;;8.30;7.03;;;12.90;55.50;;;;;;4932550;29;20312;-73
2022/03/19 13:33:31;;;;;;;10.70;8.07;;;12.90;56.20;;;;;;4934715;29;20193;-73
2022/03/19 13:35:58;;;;;;;8.63;6.20;;;13.90;54.60;;;;;;4932054;29;20218;-73
2022/03/19 13:38:24;;;;;;;8.03;7.23;;;15.80;51.10;;;;;;4932752;29;20190;-72
2022/03/19 13:40:52;;;;;;;7.83;7.03;;;16.80;48.80;;;;;;4935365;29;20207;-72
2022/03/19 13:43:20;;;;;;;7.10;6.43;;;17.20;46.10;;;;;;4933780;29;20261;-72
2022/03/19 13:45:46;;;;;;;5.87;5.37;;;15.60;45.80;;;;;;4934879;29;20182;-72
2022/03/19 13:48:13;;;;;;;7.03;6.33;;;13.70;50.00;;;;;;4934473;29;20196;-72
2022/03/19 13:50:54;;;;;;;9.97;8.70;;;12.90;52.60;;;;;;4934679;29;20257;-72
2022/03/19 13:53:20;;;;;;;8.20;7.20;;;12.40;55.30;;;;;;4915795;29;20197;-73
2022/03/19 13:55:45;;;;;;;7.87;7.07;;;12.10;55.70;;;;;;4915618;29;20214;-73
2022/03/19 13:58:13;;;;;;;12.07;8.13;;;12.00;55.60;;;;;;4915367;29;20622;-73
2022/03/19 14:00:42;;;;;;;8.90;8.03;;;12.90;56.00;;;;;;4915274;29;20301;-72
2022/03/19 14:03:16;;;;;;;9.07;7.30;;;14.70;52.80;;;;;;4914486;29;20585;-72
2022/03/19 14:05:48;;;;;;;9.20;8.33;;;15.50;49.80;;;;;;4922504;29;20646;-72
2022/03/19 14:08:19;;;;;;;8.90;7.33;;;16.90;48.10;;;;;;4932935;29;20567;-72
2022/03/19 14:10:47;;;;;;;5.27;4.83;;;16.90;47.00;;;;;;4934445;29;20277;-72
2022/03/19 14:13:18;;;;;;;9.53;6.60;;;16.10;47.10;;;;;;4934274;29;20201;-72
2022/03/19 14:15:55;;;;;;;7.07;6.07;;;14.90;49.90;;;;;;4934415;29;20225;-73
2022/03/19 14:18:29;;;;;;;7.93;5.83;;;14.00;51.00;;;;;;4934307;29;20605;-73
2022/03/19 14:20:57;;;;;;;6.33;5.67;;;13.20;51.90;;;;;;4933944;29;20772;-70
2022/03/19 14:23:23;;;;;;;7.10;6.50;;;12.60;53.90;;;;;;4915212;29;20669;-72
2022/03/19 14:25:49;;;;;;;7.33;6.63;;;12.10;55.20;;;;;;4915805;29;20194;-73
2022/03/19 14:28:17;;;;;;;7.30;6.60;;;11.80;57.30;;;;;;4914450;29;20246;-73
2022/03/19 14:30:44;;;;;;;7.40;6.70;;;11.60;58.20;;;;;;4914111;29;20294;-73
2022/03/19 14:33:10;;;;;;;6.03;5.63;;;11.70;58.40;;;;;;4915720;29;20238;-71
2022/03/19 14:35:43;;;;;;;6.77;6.10;;;11.80;56.80;;;;;;4914147;29;20226;-72
2022/03/19 14:38:10;;;;;;;9.97;6.53;;;11.80;56.60;;;;;;4913706;29;20747;-73
2022/03/19 14:40:35;;;;;;;8.90;7.83;;;11.80;57.40;;;;;;4915117;29;20203;-72
2022/03/19 14:43:03;;;;;;;5.43;5.03;;;11.70;64.00;;;;;;4915185;29;20188;-72
2022/03/19 14:45:29;;;;;;;8.70;7.10;;;11.70;64.40;;;;;;4915239;29;20698;-72
2022/03/19 14:47:55;;;;;;;5.97;5.57;;;11.50;71.50;;;;;;4918310;29;20186;-73
2022/03/19 14:50:20;;;;;;;6.60;6.10;;;11.00;67.80;;;;;;4933639;29;20193;-73
2022/03/19 14:52:47;;;;;;;6.57;5.90;;;10.80;69.90;;;;;;4938140;29;20579;-72
2022/03/19 14:55:14;;;;;;;6.80;6.10;;;10.70;65.40;;;;;;4938385;29;20586;-72
2022/03/19 14:57:40;;;;;;;7.70;7.00;;;10.60;73.20;;;;;;4937358;29;20733;-72
2022/03/19 15:00:06;;;;;;;7.70;6.87;;;10.60;72.70;;;;;;4937725;29;20210;-72
2022/03/19 15:02:32;;;;;;;8.97;6.37;;;10.60;69.70;;;;;;4937300;29;20218;-72
2022/03/19 15:04:57;;;;;;;5.73;5.23;;;10.70;68.60;;;;;;4936522;29;20182;-72
2022/03/19 15:07:26;;;;;;;6.43;5.83;;;10.60;66.10;;;;;;4939081;29;20271;-72
2022/03/19 15:09:55;;;;;;;7.00;5.93;;;10.40;70.60;;;;;;4938314;29;20611;-72
2022/03/19 15:12:20;;;;;;;25.00;23.63;;;9.70;80.80;;;;;;4937557;29;20347;-71
2022/03/19 15:14:46;;;;;;;11.47;9.60;;;9.00;89.00;;;;;;4937538;29;20702;-71
2022/03/19 15:17:12;;;;;;;8.63;7.73;;;8.50;93.80;;;;;;4936938;29;20190;-71
2022/03/19 15:19:38;;;;;;;8.47;7.77;;;8.30;99.90;;;;;;4936160;29;20241;-71
2022/03/19 15:22:04;;;;;;;10.30;8.83;;;8.00;99.90;;;;;;4937084;29;20277;-72
2022/03/19 15:24:31;;;;;;;9.50;8.90;;;7.80;99.90;;;;;;4937437;29;20253;-71
2022/03/19 15:26:58;;;;;;;9.40;8.50;;;7.70;99.90;;;;;;4936984;29;20237;-72
2022/03/19 15:29:24;;;;;;;10.80;9.80;;;7.80;99.90;;;;;;4934729;29;20196;-72
2022/03/19 15:31:49;;;;;;;10.37;9.40;;;8.00;99.90;;;;;;4936856;29;20206;-72
2022/03/19 15:34:16;;;;;;;9.67;6.77;;;8.10;99.90;;;;;;4944350;29;20210;-72
2022/03/19 15:36:46;;;;;;;13.07;10.97;;;8.00;99.90;;;;;;4948571;29;20269;-72
2022/03/19 15:39:12;;;;;;;15.80;7.83;;;8.00;99.90;;;;;;4938659;29;20186;-73
2022/03/19 15:41:38;;;;;;;7.93;7.13;;;8.10;99.90;;;;;;4938672;29;20199;-73
2022/03/19 15:44:04;;;;;;;7.17;6.27;;;8.70;99.90;;;;;;4936523;29;20190;-72
2022/03/19 15:46:30;;;;;;;8.87;8.07;;;9.50;99.90;;;;;;4935627;29;20190;-73
2022/03/19 15:48:56;;;;;;;9.60;6.40;;;10.10;99.90;;;;;;4936298;29;20746;-73
2022/03/19 15:51:21;;;;;;;7.40;6.73;;;10.20;99.90;;;;;;4936582;29;20241;-73
2022/03/19 15:53:47;;;;;;;8.40;7.60;;;10.20;99.90;;;;;;4934895;29;20234;-73
2022/03/19 15:56:13;;;;;;;6.87;6.23;;;10.00;99.90;;;;;;4936437;29;20186;-72
2022/03/19 15:58:39;;;;;;;8.30;7.60;;;9.70;99.90;;;;;;4935175;29;20193;-73
2022/03/19 16:01:05;;;;;;;8.70;7.80;;;9.20;99.90;;;;;;4936372;29;20263;-73
2022/03/19 16:03:32;;;;;;;7.87;6.80;;;9.20;99.90;;;;;;4935567;29;20691;-72
2022/03/19 16:05:58;;;;;;;7.40;6.80;;;9.10;99.90;;;;;;4935233;29;20185;-72
2022/03/19 16:08:24;;;;;;;6.80;6.30;;;8.90;99.90;;;;;;4935875;29;20273;-72
2022/03/19 16:10:50;;;;;;;7.40;6.80;;;8.70;99.90;;;;;;4936136;29;20198;-73
2022/03/19 16:13:16;;;;;;;12.87;8.47;;;8.60;99.90;;;;;;4936274;29;20300;-72
2022/03/19 16:15:43;;;;;;;11.37;10.27;;;8.60;99.90;;;;;;4936130;29;20571;-73
2022/03/19 16:18:09;;;;;;;11.00;10.00;;;8.60;99.90;;;;;;4935568;29;20182;-73
2022/03/19 16:20:35;;;;;;;12.13;11.13;;;8.70;99.90;;;;;;4935966;29;20198;-73
2022/03/19 16:23:01;;;;;;;9.27;8.67;;;9.40;99.90;;;;;;4934854;29;20705;-73
2022/03/19 16:25:26;;;;;;;8.93;8.07;;;9.70;99.90;;;;;;4936031;29;20182;-73
2022/03/19 16:27:55;;;;;;;9.27;8.33;;;9.30;99.90;;;;;;4934658;29;20690;-76
2022/03/19 16:30:23;;;;;;;9.53;8.43;;;8.60;99.90;;;;;;4934957;29;20190;-75
2022/03/19 16:32:51;;;;;;;8.33;7.53;;;8.20;99.90;;;;;;4935409;29;20194;-74
2022/03/19 16:35:19;;;;;;;9.13;8.23;;;8.30;99.90;;;;;;4934603;29;20212;-73
2022/03/19 16:37:45;;;;;;;8.87;7.03;;;8.10;99.90;;;;;;4935870;29;20182;-74
2022/03/19 16:40:11;;;;;;;13.43;9.90;;;7.90;99.90;;;;;;4935777;29;20178;-74
2022/03/19 16:42:37;;;;;;;10.83;8.73;;;7.80;99.90;;;;;;4935639;29;20209;-74
2022/03/19 16:45:04;;;;;;;13.27;11.43;;;7.70;99.90;;;;;;4935799;29;20186;-78
2022/03/19 16:47:29;;;;;;;12.60;9.47;;;7.50;99.90;;;;;;4935235;29;20273;-78
2022/03/19 16:49:55;;;;;;;11.33;10.07;;;7.50;99.90;;;;;;4936292;29;20277;-76
2022/03/19 16:52:21;;;;;;;11.77;10.63;;;7.50;99.90;;;;;;4934796;29;20218;-76
2022/03/19 16:54:47;;;;;;;13.23;11.83;;;7.40;99.90;;;;;;4936254;29;20652;-77
2022/03/19 16:57:13;;;;;;;15.50;14.00;;;7.40;99.90;;;;;;4936056;29;20187;-76
2022/03/19 16:59:39;;;;;;;13.37;12.03;;;7.30;99.90;;;;;;4936259;29;20546;-77
2022/03/19 17:02:05;;;;;;;16.53;14.77;;;7.20;99.90;;;;;;4936122;29;20214;-76